createdAt,value
2023-03-04T00:03:52.978Z,100413.69
2023-03-04T00:08:54.678Z,100417.16
2023-03-04T00:13:57.172Z,100410.38
2023-03-04T00:18:58.943Z,100413.69
2023-03-04T00:24:00.757Z,100401.50
2023-03-04T00:29:02.390Z,100397.38
2023-03-04T00:34:04.151Z,100391.44
2023-03-04T00:39:06.035Z,100393.00
2023-03-04T00:44:07.768Z,100382.75
2023-03-04T00:49:09.392Z,100391.25
2023-03-04T00:54:11.088Z,100375.69
2023-03-04T00:59:12.804Z,100378.38
2023-03-04T01:04:14.454Z,100376.78
2023-03-04T01:09:16.107Z,100367.13
2023-03-04T01:14:17.799Z,100359.34
2023-03-04T01:19:19.880Z,100351.69
2023-03-04T01:24:21.526Z,100342.97
2023-03-04T01:29:23.304Z,100341.34
2023-03-04T01:34:25.020Z,100323.34
2023-03-04T01:39:26.718Z,100318.13
2023-03-04T01:44:28.567Z,100321.34
2023-03-04T01:49:30.886Z,100311.22
2023-03-04T01:54:32.607Z,100313.69
2023-03-04T01:59:34.284Z,100307.59
2023-03-04T02:04:36.013Z,100301.81
2023-03-04T02:09:37.732Z,100294.78
2023-03-04T02:14:39.624Z,100296.50
2023-03-04T02:19:49.789Z,100286.25
2023-03-04T02:25:03.444Z,100278.50
2023-03-04T02:30:06.249Z,100277.56
2023-03-04T02:35:14.590Z,100278.41
2023-03-04T02:40:24.854Z,100271.44
2023-03-04T02:45:40.666Z,100267.22
2023-03-04T02:50:47.372Z,100260.31
2023-03-04T02:55:49.464Z,100245.63
2023-03-04T03:00:51.999Z,100253.28
2023-03-04T03:05:54.320Z,100246.50
2023-03-04T03:10:56.259Z,100243.19
2023-03-04T03:15:59.166Z,100246.63
2023-03-04T03:21:01.007Z,100242.31
2023-03-04T03:26:03.880Z,100238.81
2023-03-04T03:31:06.628Z,100225.75
2023-03-04T03:36:09.022Z,100228.38
2023-03-04T03:41:10.866Z,100221.47
2023-03-04T03:46:12.668Z,100214.53
2023-03-04T03:51:14.335Z,100213.72
2023-03-04T03:56:16.005Z,100208.41
2023-03-04T04:01:17.653Z,100217.03
2023-03-04T04:06:19.438Z,100221.44
2023-03-04T04:11:21.504Z,100224.78
2023-03-04T04:16:23.254Z,100225.66
2023-03-04T04:21:24.957Z,100221.41
2023-03-04T04:26:26.674Z,100223.16
2023-03-04T04:31:28.319Z,100226.72
2023-03-04T04:36:30.047Z,100223.25
2023-03-04T04:41:36.800Z,100222.38
2023-03-04T04:46:39.491Z,100222.34
2023-03-04T04:51:41.239Z,100214.44
2023-03-04T04:56:43.134Z,100212.94
2023-03-04T05:01:44.890Z,100209.50
2023-03-04T05:06:46.584Z,100212.09
2023-03-04T05:11:48.373Z,100218.16
2023-03-04T05:16:50.298Z,100207.00
2023-03-04T05:21:51.949Z,100206.94
2023-03-04T05:26:53.755Z,100206.22
2023-03-04T05:31:55.606Z,100192.41
2023-03-04T05:36:57.332Z,100199.31
2023-03-04T05:41:58.999Z,100189.84
2023-03-04T05:47:00.711Z,100177.72
2023-03-04T05:52:02.378Z,100181.31
2023-03-04T05:57:04.142Z,100173.44
2023-03-04T06:02:05.779Z,100172.63
2023-03-04T06:07:07.459Z,100177.84
2023-03-04T06:12:09.098Z,100177.88
2023-03-04T06:17:10.759Z,100170.09
2023-03-04T06:22:12.645Z,100171.91
2023-03-04T06:27:14.350Z,100171.00
2023-03-04T06:32:16.019Z,100168.41
2023-03-04T06:37:17.970Z,100177.91
2023-03-04T06:42:19.639Z,100171.91
2023-03-04T06:47:21.485Z,100164.91
2023-03-04T06:52:23.168Z,100168.38
2023-03-04T06:57:24.893Z,100165.00
2023-03-04T07:02:26.515Z,100171.00
2023-03-04T07:07:28.191Z,100164.16
2023-03-04T07:12:29.992Z,100158.97
2023-03-04T07:17:31.605Z,100163.31
2023-03-04T07:22:33.224Z,100154.69
2023-03-04T07:27:35.006Z,100162.53
2023-03-04T07:32:36.783Z,100157.38
2023-03-04T07:37:40.245Z,100154.75
2023-03-04T07:42:41.951Z,100163.41
2023-03-04T07:47:47.146Z,100158.22
2023-03-04T07:52:51.001Z,100157.47
2023-03-04T07:57:52.640Z,100154.03
2023-03-04T08:02:54.283Z,100150.56
2023-03-04T08:07:57.971Z,100148.06
2023-03-04T08:12:59.904Z,100136.00
2023-03-04T08:18:02.461Z,100148.13
2023-03-04T08:23:04.284Z,100132.59
2023-03-04T08:28:06.773Z,100136.97
2023-03-04T08:33:09.664Z,100131.75
2023-03-04T08:38:11.370Z,100138.72
2023-03-04T08:43:13.138Z,100137.00
2023-03-04T08:48:15.161Z,100127.50
2023-03-04T08:53:21.602Z,100128.38
2023-03-04T08:58:23.381Z,100123.19
2023-03-04T09:03:25.090Z,100127.50
2023-03-04T09:08:26.912Z,100129.25
2023-03-04T09:13:30.872Z,100134.47
2023-03-04T09:18:32.742Z,100126.66
2023-03-04T09:23:42.355Z,100131.03
2023-03-04T09:28:48.111Z,100134.47
2023-03-04T09:33:52.492Z,100138.78
2023-03-04T09:44:43.431Z,100120.63
2023-03-04T09:49:56.760Z,100136.22
2023-03-04T09:55:07.476Z,100119.75
2023-03-04T10:00:13.597Z,100119.78
2023-03-04T10:05:24.839Z,100105.03
2023-03-04T10:10:40.477Z,100101.53
2023-03-04T10:15:53.836Z,100104.06
2023-03-04T10:21:07.586Z,100091.09
2023-03-04T10:26:21.253Z,100097.19
2023-03-04T10:31:36.678Z,100090.22
2023-03-04T10:36:55.578Z,100083.28
2023-03-04T10:42:07.017Z,100083.22
2023-03-04T10:47:12.003Z,100081.53
2023-03-04T10:52:41.312Z,100084.94
2023-03-04T10:57:45.004Z,100086.63
2023-03-04T11:02:51.823Z,100077.19
2023-03-04T11:07:57.464Z,100076.34
2023-03-04T11:13:12.316Z,100069.41
2023-03-04T11:18:28.217Z,100072.88
2023-03-04T11:23:51.675Z,100068.50
2023-03-04T11:29:01.466Z,100063.19
2023-03-04T11:34:14.333Z,100058.84
2023-03-04T11:39:27.048Z,100057.09
2023-03-04T11:44:30.646Z,100051.97
2023-03-04T11:49:53.275Z,100048.47
2023-03-04T11:55:00.719Z,100043.25
2023-03-04T12:00:29.493Z,100033.63
2023-03-04T12:05:46.360Z,100037.91
2023-03-04T12:10:52.938Z,100031.72
2023-03-04T12:16:06.674Z,100023.13
2023-03-04T12:21:24.560Z,100025.78
2023-03-04T12:26:26.248Z,100010.03
2023-03-04T12:31:50.590Z,100002.91
2023-03-04T12:37:12.101Z,99992.41
2023-03-04T12:42:39.774Z,99989.75
2023-03-04T12:47:55.181Z,99993.22
2023-03-04T12:53:10.451Z,99984.59
2023-03-04T12:58:19.476Z,99980.16
2023-03-04T13:03:30.598Z,99975.84
2023-03-04T13:08:41.502Z,99974.03
2023-03-04T13:13:43.153Z,99975.72
2023-03-04T13:18:45.103Z,99966.38
2023-03-04T13:23:46.944Z,99967.19
2023-03-04T13:29:16.079Z,99960.13
2023-03-04T13:34:59.104Z,99948.75
2023-03-04T13:40:27.418Z,99944.28
2023-03-04T13:45:40.127Z,99951.13
2023-03-04T13:50:48.438Z,99939.66
2023-03-04T13:56:08.750Z,99937.00
2023-03-04T14:01:31.637Z,99943.78
2023-03-04T14:06:33.231Z,99939.44
2023-03-04T14:11:42.305Z,99930.75
2023-03-04T14:17:01.922Z,99926.47
2023-03-04T14:22:03.674Z,99928.03
2023-03-04T14:27:14.911Z,99936.13
2023-03-04T14:32:19.769Z,99924.69
2023-03-04T14:37:24.670Z,99924.69
2023-03-04T14:42:36.850Z,99925.41
2023-03-04T14:47:46.574Z,99929.59
2023-03-04T14:52:53.315Z,99926.34
2023-03-04T14:58:10.289Z,99925.59
2023-03-04T15:03:30.207Z,99915.50
2023-03-04T15:08:37.326Z,99920.72
2023-03-04T15:13:46.439Z,99913.00
2023-03-04T15:19:24.573Z,99906.97
2023-03-04T15:24:26.184Z,99911.31
2023-03-04T15:29:29.252Z,99913.00
2023-03-04T15:34:31.499Z,99926.19
2023-03-04T15:39:33.492Z,99916.72
2023-03-04T15:44:35.574Z,99921.94
2023-03-04T15:49:37.448Z,99929.00
2023-03-04T15:54:39.402Z,99920.28
2023-03-04T15:59:41.702Z,99930.03
2023-03-04T16:04:43.640Z,99930.06
2023-03-04T16:09:47.028Z,99933.38
2023-03-04T16:14:50.088Z,99932.56
2023-03-04T16:19:52.029Z,99926.59
2023-03-04T16:24:55.472Z,99921.47
2023-03-04T16:29:57.584Z,99925.88
2023-03-04T16:34:59.303Z,99929.41
2023-03-04T16:40:01.329Z,99923.34
2023-03-04T16:45:03.389Z,99938.81
2023-03-04T16:50:05.373Z,99944.88
2023-03-04T16:55:15.012Z,99943.34
2023-03-04T17:00:19.142Z,99938.16
2023-03-04T17:05:24.261Z,99944.47
2023-03-04T17:10:26.798Z,99941.03
2023-03-04T17:15:28.635Z,99945.44
2023-03-04T17:20:30.554Z,99948.06
2023-03-04T17:25:32.540Z,99942.84
2023-03-04T17:30:34.709Z,99952.38
2023-03-04T17:35:39.918Z,99954.97
2023-03-04T17:40:42.415Z,99954.16
2023-03-04T17:45:44.602Z,99965.38
2023-03-04T17:50:51.139Z,99963.66
2023-03-04T17:56:00.335Z,99966.31
2023-03-04T18:01:17.784Z,99960.31
2023-03-04T18:06:20.494Z,99956.78
2023-03-04T18:11:24.797Z,99959.47
2023-03-04T18:16:29.055Z,99964.66
2023-03-04T18:21:31.523Z,99959.44
2023-03-04T18:26:33.419Z,99959.41
2023-03-04T18:31:37.219Z,99953.44
2023-03-04T18:36:39.520Z,99968.06
2023-03-04T18:41:41.709Z,99961.97
2023-03-04T18:46:45.659Z,99962.94
2023-03-04T18:51:47.836Z,99959.50
2023-03-04T18:56:58.232Z,99965.44
2023-03-04T19:02:06.497Z,99954.28
2023-03-04T19:07:08.367Z,99970.72
2023-03-04T19:12:10.777Z,99973.28
2023-03-04T19:17:12.942Z,99973.41
2023-03-04T19:22:14.966Z,99970.75
2023-03-04T19:27:16.941Z,99970.75
2023-03-04T19:32:19.332Z,99977.75
2023-03-04T19:37:21.682Z,99971.66
2023-03-04T19:42:24.208Z,99973.38
2023-03-04T19:47:26.163Z,99980.28
2023-03-04T19:52:27.965Z,99971.69
2023-03-04T19:57:29.913Z,99977.78
2023-03-04T20:02:31.616Z,99976.00
2023-03-04T20:07:33.375Z,99980.38
2023-03-04T20:12:36.290Z,99982.94
2023-03-04T20:17:38.033Z,99985.56
2023-03-04T20:22:39.882Z,99982.97
2023-03-04T20:27:41.492Z,99984.72
2023-03-04T20:32:43.189Z,99990.81
2023-03-04T20:37:45.122Z,99983.84
2023-03-04T20:42:47.106Z,99979.50
2023-03-04T20:47:49.884Z,99983.00
2023-03-04T20:52:52.315Z,99984.75
2023-03-04T20:57:54.588Z,99978.66
2023-03-04T21:02:56.715Z,99979.50
2023-03-04T21:08:01.397Z,99974.34
2023-03-04T21:13:03.144Z,99969.16
2023-03-04T21:18:04.762Z,99963.97
2023-03-04T21:23:06.432Z,99967.41
2023-03-04T21:28:08.032Z,99970.06
2023-03-04T21:33:19.328Z,99963.13
2023-03-04T21:38:21.086Z,99972.66
2023-03-04T21:43:23.778Z,99965.72
2023-03-04T21:48:26.011Z,99970.91
2023-03-04T21:53:28.779Z,99971.78
2023-03-04T21:58:30.962Z,99963.97
2023-03-04T22:03:32.604Z,99959.66
2023-03-04T22:08:34.423Z,99947.59
2023-03-04T22:13:37.301Z,99941.50
2023-03-04T22:18:40.799Z,99944.94
2023-03-04T22:23:42.973Z,99932.84
2023-03-04T22:28:45.379Z,99934.56
2023-03-04T22:33:47.767Z,99930.25
2023-03-04T22:38:49.477Z,99927.66
2023-03-04T22:43:51.229Z,99926.78
2023-03-04T22:48:55.664Z,99925.91
2023-03-04T22:53:57.924Z,99941.50
2023-03-04T22:58:59.540Z,99925.06
2023-03-04T23:04:01.415Z,99920.75
2023-03-04T23:09:04.056Z,99925.09
2023-03-04T23:14:07.902Z,99926.84
2023-03-04T23:19:17.433Z,99922.50
2023-03-04T23:24:20.152Z,99925.09
2023-03-04T23:29:21.887Z,99916.44
2023-03-04T23:34:23.727Z,99911.25
2023-03-04T23:39:25.403Z,99913.84
2023-03-04T23:44:27.233Z,99906.06
2023-03-04T23:49:28.897Z,99911.25
2023-03-04T23:54:31.340Z,99901.75
2023-03-04T23:59:33.074Z,99906.97
